createdAt,value
2023-05-09T00:02:01.390Z,157.57
2023-05-09T00:04:28.127Z,154.27
2023-05-09T00:06:54.714Z,164.57
2023-05-09T00:09:21.231Z,170.82
2023-05-09T00:11:47.797Z,178.75
2023-05-09T00:14:14.381Z,188.18
2023-05-09T00:16:40.889Z,201.32
2023-05-09T00:19:07.561Z,164.27
2023-05-09T00:21:34.232Z,164.75
2023-05-09T00:24:01.866Z,164.88
2023-05-09T00:26:28.361Z,154.88
2023-05-09T00:28:54.873Z,157.40
2023-05-09T00:31:21.530Z,157.57
2023-05-09T00:33:48.546Z,162.48
2023-05-09T00:36:15.193Z,164.10
2023-05-09T00:38:43.985Z,171.73
2023-05-09T00:41:10.854Z,167.82
2023-05-09T00:43:37.331Z,160.63
2023-05-09T00:46:04.393Z,155.85
2023-05-09T00:48:31.100Z,142.75
2023-05-09T00:50:57.613Z,143.55
2023-05-09T00:53:24.687Z,147.55
2023-05-09T00:55:51.181Z,148.20
2023-05-09T00:58:19.409Z,150.13
2023-05-09T01:00:45.913Z,191.38
2023-05-09T01:03:12.547Z,153.30
2023-05-09T01:05:52.828Z,143.30
2023-05-09T01:08:42.439Z,144.82
2023-05-09T01:11:22.803Z,139.65
2023-05-09T01:14:08.007Z,133.70
2023-05-09T01:16:49.298Z,148.40
2023-05-09T01:19:30.267Z,153.40
2023-05-09T01:21:59.507Z,157.35
2023-05-09T01:24:44.698Z,140.40
2023-05-09T01:27:30.188Z,141.43
2023-05-09T01:29:57.458Z,107.38
2023-05-09T01:32:28.005Z,125.40
2023-05-09T01:34:55.948Z,135.52
2023-05-09T01:37:24.594Z,108.40
2023-05-09T01:39:53.285Z,120.47
2023-05-09T01:42:20.912Z,121.35
2023-05-09T01:44:49.019Z,138.35
2023-05-09T01:47:16.866Z,146.52
2023-05-09T01:49:43.700Z,143.23
2023-05-09T01:52:12.628Z,136.63
2023-05-09T01:54:40.453Z,137.65
2023-05-09T01:57:08.230Z,136.35
2023-05-09T01:59:35.257Z,132.65
2023-05-09T02:02:03.610Z,126.32
2023-05-09T02:04:30.708Z,133.35
2023-05-09T02:06:57.593Z,139.73
2023-05-09T02:09:24.334Z,148.43
2023-05-09T02:11:50.878Z,155.20
2023-05-09T02:14:17.552Z,153.98
2023-05-09T02:16:44.554Z,155.60
2023-05-09T02:19:11.275Z,151.90
2023-05-09T02:21:37.882Z,139.07
2023-05-09T02:24:04.591Z,144.25
2023-05-09T02:26:31.467Z,142.02
2023-05-09T02:28:58.612Z,148.15
2023-05-09T02:31:26.026Z,152.48
2023-05-09T02:33:53.500Z,156.13
2023-05-09T02:36:20.541Z,155.88
2023-05-09T02:38:47.274Z,147.98
2023-05-09T02:41:14.381Z,143.30
2023-05-09T02:43:41.110Z,135.48
2023-05-09T02:46:08.198Z,142.02
2023-05-09T02:48:34.984Z,140.98
2023-05-09T02:51:01.657Z,133.68
2023-05-09T02:53:28.374Z,143.27
2023-05-09T02:55:54.945Z,144.13
2023-05-09T02:58:21.439Z,146.52
2023-05-09T03:00:47.961Z,146.05
2023-05-09T03:03:14.928Z,140.80
2023-05-09T03:05:41.611Z,138.77
2023-05-09T03:08:08.147Z,143.25
2023-05-09T03:10:34.920Z,143.82
2023-05-09T03:13:02.255Z,142.38
2023-05-09T03:15:28.800Z,151.82
2023-05-09T03:17:58.824Z,154.43
2023-05-09T03:20:26.116Z,166.93
2023-05-09T03:22:52.772Z,161.02
2023-05-09T03:25:19.273Z,158.90
2023-05-09T03:27:45.844Z,165.23
2023-05-09T03:30:14.871Z,173.10
2023-05-09T03:32:43.273Z,161.32
2023-05-09T03:35:10.020Z,157.88
2023-05-09T03:37:36.929Z,156.00
2023-05-09T03:40:05.219Z,158.93
2023-05-09T03:42:35.585Z,152.43
2023-05-09T03:45:03.516Z,154.73
2023-05-09T03:47:30.240Z,149.60
2023-05-09T03:49:57.420Z,145.60
2023-05-09T03:52:23.938Z,151.57
2023-05-09T03:54:50.799Z,160.70
2023-05-09T03:57:17.796Z,153.07
2023-05-09T03:59:46.029Z,148.57
2023-05-09T04:02:14.257Z,153.63
2023-05-09T04:04:41.200Z,157.82
2023-05-09T04:07:08.190Z,155.35
2023-05-09T04:09:34.996Z,166.30
2023-05-09T04:12:01.580Z,173.00
2023-05-09T04:14:28.755Z,169.57
2023-05-09T04:16:55.298Z,163.77
2023-05-09T04:19:21.827Z,184.60
2023-05-09T04:21:48.613Z,229.43
2023-05-09T04:24:15.189Z,189.27
2023-05-09T04:26:43.767Z,151.13
2023-05-09T04:29:13.801Z,92.25
2023-05-09T04:31:41.419Z,71.38
2023-05-09T04:34:10.766Z,76.47
2023-05-09T04:36:38.292Z,60.05
2023-05-09T04:39:05.448Z,69.70
2023-05-09T04:41:34.478Z,57.55
2023-05-09T04:44:02.035Z,85.35
2023-05-09T04:46:29.361Z,126.72
2023-05-09T04:48:56.212Z,106.50
2023-05-09T04:51:22.841Z,95.15
2023-05-09T04:53:50.962Z,68.07
2023-05-09T04:56:19.329Z,59.78
2023-05-09T04:58:47.581Z,50.55
2023-05-09T05:01:14.892Z,174.13
2023-05-09T05:03:41.784Z,227.35
2023-05-09T05:06:08.428Z,184.20
2023-05-09T05:08:36.213Z,191.13
2023-05-09T05:11:02.750Z,186.95
2023-05-09T05:13:29.782Z,187.25
2023-05-09T05:15:59.685Z,198.90
2023-05-09T05:18:26.476Z,248.48
2023-05-09T05:20:53.782Z,229.80
2023-05-09T05:23:20.769Z,156.18
2023-05-09T05:25:49.032Z,180.02
2023-05-09T05:28:15.633Z,181.38
2023-05-09T05:30:42.539Z,187.82
2023-05-09T05:33:09.198Z,180.02
2023-05-09T05:35:35.790Z,143.00
2023-05-09T05:38:02.733Z,118.50
2023-05-09T05:40:29.389Z,148.82
2023-05-09T05:42:57.783Z,142.45
2023-05-09T05:45:25.212Z,172.35
2023-05-09T05:47:56.229Z,241.55
2023-05-09T05:50:23.651Z,222.93
2023-05-09T05:52:50.319Z,229.38
2023-05-09T05:55:18.499Z,267.83
2023-05-09T05:57:45.704Z,244.15
2023-05-09T06:00:15.202Z,264.13
2023-05-09T06:02:55.055Z,258.95
2023-05-09T06:05:44.204Z,250.85
2023-05-09T06:08:11.703Z,205.98
2023-05-09T06:10:38.237Z,191.38
2023-05-09T06:13:04.763Z,206.98
2023-05-09T06:15:31.710Z,190.23
2023-05-09T06:17:59.405Z,161.68
2023-05-09T06:20:27.318Z,158.80
2023-05-09T06:22:53.781Z,119.15
2023-05-09T06:25:20.307Z,103.90
2023-05-09T06:27:46.792Z,133.88
2023-05-09T06:30:24.476Z,123.65
2023-05-09T06:32:52.638Z,120.53
2023-05-09T06:35:19.200Z,141.88
2023-05-09T06:37:48.236Z,123.78
2023-05-09T06:40:15.200Z,118.63
2023-05-09T06:42:41.633Z,124.63
2023-05-09T06:45:08.640Z,128.82
2023-05-09T06:47:35.422Z,116.60
2023-05-09T06:50:02.029Z,139.02
2023-05-09T06:52:28.546Z,145.30
2023-05-09T06:54:55.727Z,162.02
2023-05-09T06:57:22.242Z,186.23
2023-05-09T06:59:48.762Z,187.52
2023-05-09T07:02:16.057Z,227.18
2023-05-09T07:04:43.215Z,278.52
2023-05-09T07:07:09.719Z,255.35
2023-05-09T07:09:36.228Z,227.55
2023-05-09T07:12:02.840Z,251.98
2023-05-09T07:14:29.440Z,238.00
2023-05-09T07:17:05.194Z,227.95
2023-05-09T07:19:41.293Z,220.05
2023-05-09T07:22:07.875Z,208.38
2023-05-09T07:24:34.421Z,220.05
2023-05-09T07:27:02.700Z,217.77
2023-05-09T07:29:29.247Z,198.57
2023-05-09T07:31:55.867Z,195.65
2023-05-09T07:34:23.921Z,185.43
2023-05-09T07:36:50.406Z,189.40
2023-05-09T07:39:17.089Z,178.10
2023-05-09T07:41:43.616Z,185.20
2023-05-09T07:44:10.836Z,170.00
2023-05-09T07:46:42.076Z,154.57
2023-05-09T07:49:08.994Z,150.95
2023-05-09T07:51:35.735Z,144.30
2023-05-09T07:54:02.347Z,142.68
2023-05-09T07:56:28.996Z,159.38
2023-05-09T07:58:55.945Z,231.85
2023-05-09T08:01:22.674Z,199.50
2023-05-09T08:03:49.296Z,198.85
2023-05-09T08:06:15.970Z,213.75
2023-05-09T08:08:42.452Z,187.05
2023-05-09T08:11:08.958Z,150.48
2023-05-09T08:13:36.062Z,148.10
2023-05-09T08:16:02.941Z,134.65
2023-05-09T08:18:29.670Z,128.27
2023-05-09T08:20:56.320Z,126.22
2023-05-09T08:23:22.876Z,110.82
2023-05-09T08:25:52.509Z,107.60
2023-05-09T08:28:19.152Z,100.65
2023-05-09T08:30:45.735Z,93.05
2023-05-09T08:33:12.311Z,93.97
2023-05-09T08:35:38.854Z,79.18
2023-05-09T08:38:05.395Z,75.22
2023-05-09T08:40:35.775Z,75.72
2023-05-09T08:43:03.369Z,66.78
2023-05-09T08:45:30.522Z,64.30
2023-05-09T08:47:57.177Z,57.08
2023-05-09T08:50:23.805Z,58.25
2023-05-09T08:52:51.556Z,51.85
2023-05-09T08:55:18.324Z,55.08
2023-05-09T08:57:44.901Z,50.63
2023-05-09T09:00:13.586Z,51.90
2023-05-09T09:02:41.147Z,45.22
2023-05-09T09:05:12.682Z,40.30
2023-05-09T09:07:46.549Z,38.00
2023-05-09T09:10:13.566Z,44.72
2023-05-09T09:12:41.078Z,49.47
2023-05-09T09:15:10.585Z,42.25
2023-05-09T09:17:40.598Z,42.90
2023-05-09T09:20:09.614Z,39.65
2023-05-09T09:22:36.749Z,42.70
2023-05-09T09:25:03.954Z,40.42
2023-05-09T09:27:31.765Z,38.05
2023-05-09T09:30:08.386Z,34.50
2023-05-09T09:32:35.188Z,44.22
2023-05-09T09:35:07.051Z,37.15
2023-05-09T09:37:35.251Z,36.22
2023-05-09T09:40:02.558Z,42.63
2023-05-09T09:42:40.521Z,37.00
2023-05-09T09:45:17.708Z,40.80
2023-05-09T09:47:45.341Z,44.47
2023-05-09T09:50:16.074Z,37.58
2023-05-09T09:52:52.878Z,35.30
2023-05-09T09:55:19.923Z,39.10
2023-05-09T09:57:48.129Z,38.03
2023-05-09T10:00:16.235Z,43.55
2023-05-09T10:02:47.179Z,36.58
2023-05-09T10:05:18.687Z,35.45
2023-05-09T10:07:45.429Z,27.98
2023-05-09T10:10:12.099Z,32.78
2023-05-09T10:12:40.143Z,34.25
2023-05-09T10:15:09.127Z,31.83
2023-05-09T10:17:36.152Z,38.05
2023-05-09T10:20:04.318Z,29.50
2023-05-09T10:22:32.442Z,28.25
2023-05-09T10:24:58.913Z,27.55
2023-05-09T10:27:27.093Z,31.73
2023-05-09T10:30:07.371Z,32.65
2023-05-09T10:32:39.828Z,30.30
2023-05-09T10:35:07.033Z,26.23
2023-05-09T10:37:33.758Z,32.15
2023-05-09T10:40:01.519Z,24.67
2023-05-09T10:42:29.062Z,28.88
2023-05-09T10:44:56.394Z,29.95
2023-05-09T10:47:23.477Z,24.15
2023-05-09T10:49:50.175Z,23.35
2023-05-09T10:52:17.010Z,29.13
2023-05-09T10:54:43.475Z,27.00
2023-05-09T10:57:10.135Z,23.88
2023-05-09T10:59:43.478Z,23.85
2023-05-09T11:02:13.928Z,25.25
2023-05-09T11:04:41.188Z,27.35
2023-05-09T11:07:22.780Z,23.58
2023-05-09T11:10:08.038Z,29.05
2023-05-09T11:12:34.549Z,27.77
2023-05-09T11:15:05.028Z,25.70
2023-05-09T11:17:32.527Z,21.67
2023-05-09T11:20:00.313Z,21.77
2023-05-09T11:22:32.574Z,21.75
2023-05-09T11:25:00.572Z,24.40
2023-05-09T11:27:28.517Z,23.20
2023-05-09T11:29:55.091Z,20.92
2023-05-09T11:32:22.514Z,24.20
2023-05-09T11:34:49.388Z,22.05
2023-05-09T11:37:16.862Z,24.42
2023-05-09T11:39:59.637Z,23.83
2023-05-09T11:42:28.033Z,27.23
2023-05-09T11:44:55.034Z,20.50
2023-05-09T11:47:21.771Z,22.13
2023-05-09T11:49:51.822Z,21.90
2023-05-09T11:52:22.190Z,19.65
2023-05-09T11:54:49.673Z,18.90
2023-05-09T11:57:19.076Z,20.95
2023-05-09T11:59:45.707Z,22.92
2023-05-09T12:02:12.410Z,21.30
2023-05-09T12:04:39.707Z,14.35
2023-05-09T12:07:06.328Z,18.27
2023-05-09T12:09:33.952Z,19.02
2023-05-09T12:12:08.789Z,21.08
2023-05-09T12:14:35.341Z,23.00
2023-05-09T12:17:02.044Z,36.03
2023-05-09T12:19:28.764Z,25.40
2023-05-09T12:21:59.517Z,25.52
2023-05-09T12:24:27.007Z,29.75
2023-05-09T12:26:54.286Z,21.42
2023-05-09T12:29:21.489Z,22.17
2023-05-09T12:31:48.395Z,27.17
2023-05-09T12:34:15.355Z,19.73
2023-05-09T12:36:50.730Z,21.88
2023-05-09T12:39:22.488Z,23.67
2023-05-09T12:42:00.546Z,21.50
2023-05-09T12:44:29.631Z,23.25
2023-05-09T12:46:57.466Z,20.73
2023-05-09T12:49:24.141Z,21.70
2023-05-09T12:51:51.244Z,24.10
2023-05-09T12:54:22.433Z,21.10
2023-05-09T12:56:52.139Z,19.27
2023-05-09T12:59:22.617Z,19.88
2023-05-09T13:01:53.859Z,17.23
2023-05-09T13:04:20.989Z,28.42
2023-05-09T13:06:48.288Z,21.77
2023-05-09T13:09:15.001Z,21.83
2023-05-09T13:11:41.497Z,21.42
2023-05-09T13:14:08.507Z,15.43
2023-05-09T13:16:35.175Z,17.20
2023-05-09T13:19:01.882Z,20.55
2023-05-09T13:21:28.385Z,21.02
2023-05-09T13:23:54.911Z,23.42
2023-05-09T13:26:21.628Z,21.27
2023-05-09T13:28:48.367Z,21.48
2023-05-09T13:31:15.025Z,17.38
2023-05-09T13:33:41.593Z,17.05
2023-05-09T13:36:08.200Z,18.27
2023-05-09T13:38:38.698Z,15.98
2023-05-09T13:41:05.247Z,15.23
2023-05-09T13:43:31.791Z,16.48
2023-05-09T13:45:58.543Z,17.55
2023-05-09T13:48:25.111Z,25.70
2023-05-09T13:50:51.581Z,18.83
2023-05-09T13:53:18.076Z,17.90
2023-05-09T13:55:45.593Z,14.82
2023-05-09T13:58:12.398Z,19.77
2023-05-09T14:00:38.922Z,14.77
2023-05-09T14:03:05.445Z,14.57
2023-05-09T14:05:32.076Z,17.10
2023-05-09T14:07:58.530Z,16.55
2023-05-09T14:10:26.782Z,14.68
2023-05-09T14:12:53.968Z,23.10
2023-05-09T14:15:20.470Z,15.95
2023-05-09T14:17:47.358Z,15.07
2023-05-09T14:20:15.856Z,21.38
2023-05-09T14:22:42.785Z,18.90
2023-05-09T14:25:09.335Z,13.88
2023-05-09T14:27:37.177Z,20.33
2023-05-09T14:30:04.499Z,13.32
2023-05-09T14:32:31.094Z,15.15
2023-05-09T14:34:57.580Z,23.67
2023-05-09T14:37:24.117Z,14.23
2023-05-09T14:39:50.979Z,18.13
2023-05-09T14:42:18.336Z,23.30
2023-05-09T14:44:46.117Z,13.93
2023-05-09T14:47:13.024Z,13.85
2023-05-09T14:49:42.540Z,16.23
2023-05-09T14:52:10.818Z,11.68
2023-05-09T14:54:37.365Z,14.27
2023-05-09T14:57:05.354Z,17.40
2023-05-09T14:59:32.130Z,15.00
2023-05-09T15:01:58.793Z,14.40
2023-05-09T15:04:30.457Z,15.10
2023-05-09T15:06:58.790Z,14.38
2023-05-09T15:09:25.297Z,18.55
2023-05-09T15:11:51.805Z,19.25
2023-05-09T15:14:18.687Z,17.23
2023-05-09T15:16:45.127Z,17.23
2023-05-09T15:19:11.602Z,15.05
2023-05-09T15:21:38.208Z,17.30
2023-05-09T15:24:04.805Z,17.00
2023-05-09T15:26:31.944Z,19.85
2023-05-09T15:28:58.399Z,15.95
2023-05-09T15:31:25.876Z,14.65
2023-05-09T15:33:52.434Z,21.45
2023-05-09T15:36:18.947Z,17.30
2023-05-09T15:38:49.520Z,16.88
2023-05-09T15:41:16.551Z,14.00
2023-05-09T15:43:43.128Z,40.67
2023-05-09T15:46:09.759Z,19.83
2023-05-09T15:48:36.288Z,15.55
2023-05-09T15:51:04.160Z,15.98
2023-05-09T15:53:30.929Z,13.38
2023-05-09T15:55:57.378Z,14.77
2023-05-09T15:58:28.366Z,24.88
2023-05-09T16:00:54.958Z,14.77
2023-05-09T16:03:21.874Z,18.48
2023-05-09T16:05:48.798Z,13.95
2023-05-09T16:08:15.487Z,11.50
2023-05-09T16:10:42.052Z,12.18
2023-05-09T16:13:09.232Z,11.55
2023-05-09T16:15:35.792Z,11.60
2023-05-09T16:18:02.262Z,12.50
2023-05-09T16:20:28.762Z,13.88
2023-05-09T16:22:55.208Z,12.00
2023-05-09T16:25:21.726Z,16.23
2023-05-09T16:27:48.221Z,14.18
2023-05-09T16:30:15.066Z,11.45
2023-05-09T16:32:42.485Z,11.45
2023-05-09T16:35:09.164Z,14.70
2023-05-09T16:37:35.811Z,9.40
2023-05-09T16:40:02.874Z,13.95
2023-05-09T16:42:29.436Z,14.95
2023-05-09T16:44:56.143Z,12.23
2023-05-09T16:47:22.691Z,16.80
2023-05-09T16:49:49.255Z,11.77
2023-05-09T16:52:15.703Z,11.65
2023-05-09T16:54:42.270Z,14.30
2023-05-09T16:57:08.818Z,12.50
2023-05-09T16:59:35.399Z,10.38
2023-05-09T17:02:02.223Z,11.20
2023-05-09T17:04:29.356Z,10.55
2023-05-09T17:06:56.014Z,15.45
2023-05-09T17:09:22.668Z,14.55
2023-05-09T17:11:49.234Z,9.13
2023-05-09T17:14:15.980Z,13.15
2023-05-09T17:16:42.473Z,13.50
2023-05-09T17:19:09.059Z,9.98
2023-05-09T17:21:35.839Z,17.45
2023-05-09T17:24:02.437Z,14.15
2023-05-09T17:26:29.728Z,10.35
2023-05-09T17:28:56.302Z,14.60
2023-05-09T17:31:22.892Z,11.63
2023-05-09T17:33:49.531Z,11.27
2023-05-09T17:36:16.165Z,15.48
2023-05-09T17:38:42.676Z,15.52
2023-05-09T17:41:09.180Z,10.93
2023-05-09T17:43:35.641Z,10.63
2023-05-09T17:46:02.320Z,16.23
2023-05-09T17:48:29.247Z,16.63
2023-05-09T17:50:56.313Z,15.23
2023-05-09T17:53:22.964Z,20.10
2023-05-09T17:55:50.545Z,19.88
2023-05-09T17:58:17.103Z,14.27
2023-05-09T18:00:44.634Z,27.13
2023-05-09T18:03:11.264Z,24.30
2023-05-09T18:05:38.093Z,20.50
2023-05-09T18:08:04.747Z,28.00
2023-05-09T18:10:31.370Z,26.92
2023-05-09T18:12:57.817Z,23.55
2023-05-09T18:15:24.784Z,28.95
2023-05-09T18:17:51.600Z,28.55
2023-05-09T18:20:18.511Z,24.30
2023-05-09T18:22:45.444Z,26.73
2023-05-09T18:25:11.977Z,25.38
2023-05-09T18:27:38.425Z,25.17
2023-05-09T18:30:05.224Z,28.65
2023-05-09T18:32:32.490Z,29.10
2023-05-09T18:34:59.093Z,25.13
2023-05-09T18:37:25.603Z,25.00
2023-05-09T18:39:52.096Z,23.10
2023-05-09T18:42:19.787Z,17.90
2023-05-09T18:44:46.476Z,22.52
2023-05-09T18:47:13.151Z,19.10
2023-05-09T18:49:39.831Z,13.98
2023-05-09T18:52:06.395Z,13.07
2023-05-09T18:54:32.931Z,18.95
2023-05-09T18:56:59.445Z,16.48
2023-05-09T18:59:26.101Z,11.77
2023-05-09T19:01:53.169Z,16.40
2023-05-09T19:04:20.035Z,14.48
2023-05-09T19:06:46.828Z,14.18
2023-05-09T19:09:13.682Z,15.73
2023-05-09T19:11:40.229Z,13.25
2023-05-09T19:14:07.229Z,10.52
2023-05-09T19:16:33.795Z,14.80
2023-05-09T19:19:00.880Z,13.85
2023-05-09T19:24:12.732Z,12.18
2023-05-09T19:26:39.307Z,13.20
2023-05-09T19:29:08.265Z,15.40
2023-05-09T19:31:36.480Z,14.95
2023-05-09T19:34:03.118Z,13.35
2023-05-09T19:36:29.759Z,13.52
2023-05-09T19:38:56.287Z,13.40
2023-05-09T19:41:22.833Z,14.60
2023-05-09T19:43:51.234Z,14.02
2023-05-09T19:46:19.138Z,13.82
2023-05-09T19:48:45.778Z,13.85
2023-05-09T19:51:14.154Z,15.32
2023-05-09T19:53:41.125Z,13.20
2023-05-09T19:56:08.187Z,11.90
2023-05-09T19:58:34.788Z,14.18
2023-05-09T20:01:02.027Z,15.38
2023-05-09T20:03:29.211Z,16.50
2023-05-09T20:08:40.063Z,14.98
2023-05-09T20:11:06.556Z,12.38
2023-05-09T20:13:33.238Z,16.85
2023-05-09T20:16:00.283Z,14.60
2023-05-09T20:18:27.045Z,13.88
2023-05-09T20:20:54.771Z,18.90
2023-05-09T20:23:21.222Z,12.75
2023-05-09T20:25:48.050Z,12.80
2023-05-09T20:28:19.698Z,17.35
2023-05-09T20:30:46.634Z,11.95
2023-05-09T20:33:13.185Z,12.82
2023-05-09T20:35:42.791Z,17.38
2023-05-09T20:38:09.931Z,13.48
2023-05-09T20:40:36.464Z,11.68
2023-05-09T20:43:03.037Z,16.25
2023-05-09T20:45:29.612Z,13.73
2023-05-09T20:47:56.205Z,10.77
2023-05-09T20:50:22.739Z,18.48
2023-05-09T20:52:49.266Z,11.60
2023-05-09T20:55:15.705Z,12.68
2023-05-09T20:57:42.286Z,16.55
2023-05-09T21:00:08.882Z,11.80
2023-05-09T21:02:35.561Z,10.85
2023-05-09T21:05:02.153Z,14.95
2023-05-09T21:07:28.774Z,12.95
2023-05-09T21:09:56.991Z,13.40
2023-05-09T21:12:23.547Z,18.80
2023-05-09T21:14:51.075Z,14.25
2023-05-09T21:17:17.686Z,20.23
2023-05-09T21:19:44.776Z,14.38
2023-05-09T21:22:11.306Z,12.52
2023-05-09T21:24:37.832Z,14.00
2023-05-09T21:27:04.857Z,15.70
2023-05-09T21:29:31.581Z,9.57
2023-05-09T21:31:58.024Z,9.38
2023-05-09T21:34:24.552Z,13.02
2023-05-09T21:36:50.992Z,15.88
2023-05-09T21:39:17.516Z,12.38
2023-05-09T21:41:44.066Z,12.02
2023-05-09T21:44:12.094Z,13.43
2023-05-09T21:46:38.794Z,10.90
2023-05-09T21:49:05.615Z,12.73
2023-05-09T21:51:33.431Z,14.55
2023-05-09T21:54:01.115Z,9.90
2023-05-09T21:56:27.807Z,12.18
2023-05-09T21:58:54.293Z,15.38
2023-05-09T22:01:21.308Z,10.52
2023-05-09T22:03:47.978Z,9.93
2023-05-09T22:06:14.591Z,12.85
2023-05-09T22:08:41.091Z,9.18
2023-05-09T22:11:07.845Z,12.07
2023-05-09T22:13:35.876Z,11.80
2023-05-09T22:16:04.077Z,10.75
2023-05-09T22:18:31.055Z,13.68
2023-05-09T22:20:57.532Z,12.52
2023-05-09T22:23:24.039Z,11.60
2023-05-09T22:25:50.490Z,11.80
2023-05-09T22:28:16.936Z,13.40
2023-05-09T22:30:43.514Z,12.95
2023-05-09T22:33:10.113Z,9.75
2023-05-09T22:35:36.581Z,11.32
2023-05-09T22:38:03.302Z,12.15
2023-05-09T22:40:30.295Z,10.15
2023-05-09T22:42:56.740Z,11.88
2023-05-09T22:45:23.294Z,13.18
2023-05-09T22:47:49.782Z,9.98
2023-05-09T22:50:16.695Z,14.00
2023-05-09T22:52:43.329Z,14.20
2023-05-09T22:55:09.928Z,10.07
2023-05-09T22:57:36.919Z,14.82
2023-05-09T23:00:04.252Z,12.85
2023-05-09T23:02:30.875Z,8.30
2023-05-09T23:04:57.650Z,11.18
2023-05-09T23:07:24.261Z,12.85
2023-05-09T23:09:50.790Z,11.25
2023-05-09T23:12:17.441Z,11.25
2023-05-09T23:14:43.906Z,12.80
2023-05-09T23:17:10.419Z,10.90
2023-05-09T23:19:37.330Z,13.65
2023-05-09T23:22:04.536Z,12.38
2023-05-09T23:24:31.170Z,12.00
2023-05-09T23:26:58.038Z,11.93
2023-05-09T23:29:25.216Z,13.18
2023-05-09T23:31:51.798Z,13.13
2023-05-09T23:34:18.304Z,12.35
2023-05-09T23:36:44.899Z,11.85
2023-05-09T23:39:12.098Z,13.57
2023-05-09T23:44:06.212Z,9.35
2023-05-09T23:46:32.989Z,11.88
2023-05-09T23:48:59.553Z,11.75
2023-05-09T23:51:26.189Z,14.05
2023-05-09T23:53:52.752Z,12.45
2023-05-09T23:56:19.306Z,11.07
2023-05-09T23:58:45.770Z,12.93
